Overview Statistics Trail Chart Weather Telemetry Raw packets
 

This is the latest recevied weather packets stored in our database for station/object HP3ICC-22. If no packets are shown the sender has not sent any weather packets the latest 10 day(s).

<< 23 24 25 26 27 28 29 >>
Time Temp. Humidity Pressure Rain* Wind** Luminosity Snow
1777361950 8.33° C 70% 1014 hPa 0 mm - - -
1777361890 8.33° C 70% 1014 hPa 0 mm - - -
1777360749 7.22° C 79% 1014 hPa 0 mm - - -
1777360689 7.22° C 79% 1014 hPa 0 mm - - -
1777359549 7.78° C 79% 1014 hPa 0 mm - - -
1777359489 7.78° C 79% 1014 hPa 0 mm - - -
1777358348 7.78° C 73% 1014 hPa 0 mm - - -
1777358289 7.78° C 73% 1014 hPa 0 mm - - -
1777357147 8.89° C 70% 1014 hPa 0 mm - - -
1777357090 8.89° C 70% 1014 hPa 0 mm - - -
1777355947 7.22° C 80% 1015 hPa 0 mm - - -
1777355887 7.22° C 80% 1015 hPa 0 mm - - -
1777354746 7.78° C 80% 1015 hPa 0 mm - - -
1777354686 7.78° C 80% 1015 hPa 0 mm - - -
1777353546 8.33° C 80% 1015 hPa 0 mm - - -
1777353486 8.33° C 80% 1015 hPa 0 mm - - -
1777352346 8.33° C 73% 1016 hPa 0 mm - - -
1777352285 8.33° C 73% 1016 hPa 0 mm - - -
1777351145 9.44° C 70% 1016 hPa 0 mm - - -
1777351085 9.44° C 70% 1016 hPa 0 mm - - -
1777349945 8.33° C 78% 1015 hPa 0 mm - - -
1777349884 8.33° C 78% 1015 hPa 0 mm - - -
1777348744 8.89° C 78% 1015 hPa 0 mm - - -
1777348684 8.89° C 78% 1015 hPa 0 mm - - -
1777347544 8.89° C 72% 1015 hPa 0 mm - - -

* Rain latest hour (hover to see other rain measurements)
** Current wind speed in m/s (hover to see current wind gust speed)